createdAt,value
2019-04-28T00:00:51.054Z,7.22
2019-04-28T00:03:22.293Z,10.20
2019-04-28T00:05:51.962Z,8.33
2019-04-28T00:08:23.001Z,12.63
2019-04-28T00:10:53.387Z,7.78
2019-04-28T00:13:23.194Z,7.80
2019-04-28T00:15:54.758Z,11.18
2019-04-28T00:18:24.730Z,12.47
2019-04-28T00:21:00.855Z,11.25
2019-04-28T00:23:39.797Z,7.75
2019-04-28T00:26:31.000Z,18.55
2019-04-28T00:29:01.267Z,12.20
2019-04-28T00:31:31.278Z,9.53
2019-04-28T00:34:21.214Z,12.07
2019-04-28T00:36:52.773Z,15.95
2019-04-28T00:41:52.534Z,10.20
2019-04-28T00:44:23.388Z,8.20
2019-04-28T00:46:53.265Z,11.88
2019-04-28T00:49:41.934Z,10.25
2019-04-28T00:52:11.942Z,5.85
2019-04-28T00:54:42.132Z,8.50
2019-04-28T00:57:12.020Z,10.38
2019-04-28T00:59:54.175Z,16.97
2019-04-28T01:02:31.174Z,11.15
2019-04-28T01:05:02.062Z,10.30
2019-04-28T01:07:33.665Z,5.80
2019-04-28T01:10:04.311Z,7.97
2019-04-28T01:12:34.187Z,8.38
2019-04-28T01:15:05.771Z,9.35
2019-04-28T01:17:39.706Z,10.20
2019-04-28T01:20:12.397Z,7.37
2019-04-28T01:22:42.211Z,9.08
2019-04-28T01:25:12.084Z,8.18
2019-04-28T01:27:43.434Z,12.60
2019-04-28T01:30:21.182Z,18.07
2019-04-28T01:33:01.356Z,14.28
2019-04-28T01:35:31.020Z,11.78
2019-04-28T01:38:00.706Z,39.50
2019-04-28T01:40:30.553Z,9.68
2019-04-28T01:43:01.093Z,20.88
2019-04-28T01:45:30.930Z,9.73
2019-04-28T01:48:02.298Z,23.35
2019-04-28T01:50:33.101Z,9.18
2019-04-28T01:53:02.976Z,7.22
2019-04-28T01:55:33.093Z,9.68
2019-04-28T01:58:02.877Z,11.93
2019-04-28T02:00:32.568Z,14.68
2019-04-28T02:03:02.340Z,8.18
2019-04-28T02:05:32.151Z,13.08
2019-04-28T02:08:01.773Z,7.78
2019-04-28T02:10:32.287Z,13.62
2019-04-28T02:13:01.901Z,17.63
2019-04-28T02:15:31.639Z,15.55
2019-04-28T02:18:20.716Z,18.00
2019-04-28T02:20:52.015Z,15.90
2019-04-28T02:23:32.280Z,11.38
2019-04-28T02:26:02.612Z,13.28
2019-04-28T02:28:32.335Z,15.48
2019-04-28T02:31:03.256Z,12.07
2019-04-28T02:33:35.098Z,15.85
2019-04-28T02:36:08.576Z,14.93
2019-04-28T02:41:05.410Z,19.07
2019-04-28T02:43:35.062Z,12.43
2019-04-28T02:46:04.857Z,12.98
2019-04-28T02:48:34.488Z,17.82
2019-04-28T02:51:11.843Z,11.63
2019-04-28T02:53:42.475Z,12.70
2019-04-28T02:56:12.062Z,9.65
2019-04-28T02:58:41.844Z,15.90
2019-04-28T03:01:21.876Z,12.70
2019-04-28T03:03:42.834Z,11.30
2019-04-28T03:06:12.525Z,11.05
2019-04-28T03:08:42.293Z,12.35
2019-04-28T03:11:12.136Z,18.62
2019-04-28T03:13:41.922Z,12.95
2019-04-28T03:16:11.682Z,14.38
2019-04-28T03:18:41.522Z,14.70
2019-04-28T03:21:11.598Z,16.40
2019-04-28T03:23:41.509Z,14.13
2019-04-28T03:26:12.825Z,14.28
2019-04-28T03:28:46.907Z,16.70
2019-04-28T03:31:55.263Z,11.18
2019-04-28T03:33:56.291Z,14.10
2019-04-28T03:36:26.002Z,8.55
2019-04-28T03:38:56.471Z,15.23
2019-04-28T03:41:26.213Z,14.20
2019-04-28T03:43:55.921Z,15.30
2019-04-28T03:46:30.352Z,12.63
2019-04-28T03:49:00.749Z,12.85
2019-04-28T03:54:02.942Z,9.25
2019-04-28T03:56:32.033Z,14.40
2019-04-28T03:59:01.771Z,11.20
2019-04-28T04:01:32.638Z,21.20
2019-04-28T04:04:03.520Z,13.65
2019-04-28T04:06:33.758Z,15.70
2019-04-28T04:09:04.068Z,18.27
2019-04-28T04:14:06.903Z,14.20
2019-04-28T04:16:40.354Z,8.88
2019-04-28T04:19:10.997Z,10.55
2019-04-28T04:24:10.892Z,16.10
2019-04-28T04:26:41.121Z,14.78
2019-04-28T04:29:11.178Z,9.73
2019-04-28T04:31:42.689Z,15.45
2019-04-28T04:34:12.347Z,11.30
2019-04-28T04:36:42.064Z,17.67
2019-04-28T04:39:11.726Z,16.15
2019-04-28T04:41:43.649Z,17.90
2019-04-28T04:46:41.679Z,10.75
2019-04-28T04:49:11.574Z,12.55
2019-04-28T04:51:43.912Z,17.77
2019-04-28T04:56:41.329Z,9.80
2019-04-28T04:59:11.197Z,12.37
2019-04-28T05:01:42.679Z,17.00
2019-04-28T05:04:16.976Z,15.45
2019-04-28T05:06:46.722Z,10.15
2019-04-28T05:09:16.438Z,13.40
2019-04-28T05:11:46.122Z,14.63
2019-04-28T05:14:15.854Z,9.05
2019-04-28T05:16:45.691Z,15.80
2019-04-28T05:19:16.629Z,14.43
2019-04-28T05:21:47.473Z,17.85
2019-04-28T05:24:30.225Z,18.35
2019-04-28T05:26:59.716Z,14.30
2019-04-28T05:29:30.678Z,10.50
2019-04-28T05:32:03.420Z,15.93
2019-04-28T05:37:00.828Z,8.95
2019-04-28T05:39:30.723Z,12.30
2019-04-28T05:42:00.836Z,13.03
2019-04-28T05:44:32.153Z,14.20
2019-04-28T05:47:02.319Z,10.75
2019-04-28T05:49:36.511Z,12.98
2019-04-28T05:52:11.602Z,11.63
2019-04-28T05:54:49.617Z,18.15
2019-04-28T05:57:21.076Z,15.60
2019-04-28T06:02:25.778Z,11.95
2019-04-28T06:07:31.520Z,12.47
2019-04-28T06:10:01.270Z,12.93
2019-04-28T06:12:31.951Z,12.37
2019-04-28T06:15:02.083Z,15.48
2019-04-28T06:17:31.884Z,12.55
2019-04-28T06:20:01.589Z,9.43
2019-04-28T06:22:31.258Z,9.58
2019-04-28T06:25:00.848Z,10.72
2019-04-28T06:27:32.649Z,7.35
2019-04-28T06:32:31.999Z,8.88
2019-04-28T06:35:01.635Z,13.95
2019-04-28T06:37:31.888Z,12.50
2019-04-28T06:40:01.641Z,10.32
2019-04-28T06:42:31.254Z,13.60
2019-04-28T06:45:00.801Z,9.28
2019-04-28T06:47:30.536Z,7.10
2019-04-28T06:50:00.292Z,13.15
2019-04-28T06:52:30.037Z,7.97
2019-04-28T06:54:59.699Z,9.23
2019-04-28T06:57:29.334Z,8.53
2019-04-28T06:59:59.133Z,8.05
2019-04-28T07:02:29.010Z,12.23
2019-04-28T07:05:02.185Z,7.87
2019-04-28T07:07:29.935Z,9.48
2019-04-28T07:09:59.517Z,14.63
2019-04-28T07:12:29.386Z,10.08
2019-04-28T07:14:59.093Z,8.38
2019-04-28T07:17:29.965Z,11.50
2019-04-28T07:20:04.212Z,9.18
2019-04-28T07:22:33.921Z,7.22
2019-04-28T07:25:08.172Z,11.63
2019-04-28T07:27:37.846Z,10.10
2019-04-28T07:30:09.515Z,14.85
2019-04-28T07:32:39.317Z,10.68
2019-04-28T07:35:11.317Z,7.12
2019-04-28T07:37:40.973Z,7.92
2019-04-28T07:40:10.669Z,9.73
2019-04-28T07:42:40.307Z,6.85
2019-04-28T07:45:10.411Z,11.03
2019-04-28T07:47:40.227Z,9.38
2019-04-28T07:50:11.117Z,8.53
2019-04-28T07:52:42.575Z,14.47
2019-04-28T07:57:41.887Z,15.38
2019-04-28T08:00:13.332Z,6.85
2019-04-28T08:02:43.475Z,6.55
2019-04-28T08:05:13.452Z,12.07
2019-04-28T08:07:43.845Z,8.33
2019-04-28T08:10:17.693Z,12.03
2019-04-28T08:12:57.438Z,10.55
2019-04-28T08:15:35.190Z,5.67
2019-04-28T08:18:05.418Z,11.40
2019-04-28T08:20:35.644Z,12.95
2019-04-28T08:23:05.417Z,8.58
2019-04-28T08:25:35.228Z,5.97
2019-04-28T08:28:05.002Z,4.55
2019-04-28T08:30:35.281Z,8.13
2019-04-28T08:33:18.556Z,8.18
2019-04-28T08:35:48.327Z,8.63
2019-04-28T08:38:18.260Z,8.15
2019-04-28T08:40:48.028Z,8.60
2019-04-28T08:43:17.833Z,6.50
2019-04-28T08:45:47.545Z,8.10
2019-04-28T08:48:17.524Z,6.42
2019-04-28T08:50:47.337Z,8.58
2019-04-28T08:53:17.297Z,8.98
2019-04-28T08:55:48.202Z,8.63
2019-04-28T08:58:17.967Z,6.42
2019-04-28T09:00:47.877Z,9.53
2019-04-28T09:03:17.632Z,8.18
2019-04-28T09:05:47.384Z,9.25
2019-04-28T09:08:17.010Z,11.73
2019-04-28T09:10:46.715Z,11.33
2019-04-28T09:13:16.382Z,9.25
2019-04-28T09:15:46.186Z,12.85
2019-04-28T09:18:15.904Z,9.53
2019-04-28T09:20:45.706Z,13.00
2019-04-28T09:23:15.388Z,7.25
2019-04-28T09:25:46.086Z,6.47
2019-04-28T09:28:15.992Z,12.28
2019-04-28T09:30:45.705Z,4.97
2019-04-28T09:33:15.801Z,9.40
2019-04-28T09:35:45.598Z,11.93
2019-04-28T09:38:16.136Z,10.75
2019-04-28T09:40:46.706Z,8.70
2019-04-28T09:43:20.687Z,11.78
2019-04-28T09:45:54.807Z,11.97
2019-04-28T09:48:24.494Z,8.65
2019-04-28T09:50:54.206Z,13.10
2019-04-28T09:53:23.980Z,9.35
2019-04-28T09:55:53.736Z,5.12
2019-04-28T09:58:23.546Z,7.65
2019-04-28T10:00:53.317Z,8.75
2019-04-28T10:03:25.290Z,9.13
2019-04-28T10:08:26.402Z,8.43
2019-04-28T10:10:56.213Z,11.38
2019-04-28T10:13:25.959Z,7.60
2019-04-28T10:15:55.645Z,8.43
2019-04-28T10:18:25.445Z,10.08
2019-04-28T10:20:56.322Z,9.15
2019-04-28T10:23:26.183Z,5.53
2019-04-28T10:26:02.378Z,8.28
2019-04-28T10:28:38.344Z,6.37
2019-04-28T10:31:08.915Z,8.43
2019-04-28T10:33:40.297Z,7.67
2019-04-28T10:38:40.459Z,8.20
2019-04-28T10:43:42.499Z,6.62
2019-04-28T10:46:12.500Z,7.92
2019-04-28T10:48:44.289Z,6.28
2019-04-28T10:51:14.228Z,8.55
2019-04-28T10:53:44.290Z,8.75
2019-04-28T10:56:14.073Z,7.72
2019-04-28T10:58:45.695Z,6.00
2019-04-28T11:01:15.358Z,7.72
2019-04-28T11:03:47.020Z,8.85
2019-04-28T11:06:18.258Z,6.67
2019-04-28T11:09:00.746Z,6.53
2019-04-28T11:11:31.880Z,7.33
2019-04-28T11:14:02.689Z,5.28
2019-04-28T11:16:34.085Z,11.03
2019-04-28T11:21:34.251Z,7.03
2019-04-28T11:24:04.080Z,4.95
2019-04-28T11:26:33.974Z,6.65
2019-04-28T11:29:04.181Z,7.03
2019-04-28T11:31:33.856Z,6.50
2019-04-28T11:34:12.149Z,6.20
2019-04-28T11:36:41.819Z,7.45
2019-04-28T11:39:13.281Z,6.60
2019-04-28T11:41:44.691Z,8.15
2019-04-28T11:44:14.735Z,11.10
2019-04-28T11:46:44.735Z,5.22
2019-04-28T11:49:14.577Z,6.60
2019-04-28T11:51:44.267Z,3.58
2019-04-28T11:54:14.096Z,6.35
2019-04-28T11:56:43.849Z,7.70
2019-04-28T11:59:14.146Z,7.12
2019-04-28T12:01:44.001Z,5.00
2019-04-28T12:04:15.284Z,7.55
2019-04-28T12:06:45.097Z,11.83
2019-04-28T12:09:26.086Z,6.33
2019-04-28T12:11:57.653Z,8.20
2019-04-28T12:14:28.970Z,7.67
2019-04-28T12:17:16.583Z,5.78
2019-04-28T12:19:57.007Z,7.12
2019-04-28T12:22:26.872Z,5.92
2019-04-28T12:24:56.704Z,7.92
2019-04-28T12:27:26.605Z,5.55
2019-04-28T12:29:56.758Z,7.00
2019-04-28T12:32:27.053Z,11.08
2019-04-28T12:34:58.057Z,10.93
2019-04-28T12:37:28.003Z,8.58
2019-04-28T12:39:57.706Z,9.10
2019-04-28T12:42:27.403Z,8.45
2019-04-28T12:44:58.793Z,9.15
2019-04-28T12:50:16.622Z,10.82
2019-04-28T12:52:47.401Z,9.33
2019-04-28T12:55:21.622Z,8.88
2019-04-28T12:57:51.601Z,10.50
2019-04-28T13:00:30.508Z,10.13
2019-04-28T13:03:21.724Z,11.28
2019-04-28T13:06:02.592Z,8.53
2019-04-28T13:08:26.769Z,7.65
2019-04-28T13:10:56.948Z,10.23
2019-04-28T13:13:28.079Z,10.15
2019-04-28T13:18:27.840Z,7.75
2019-04-28T13:20:59.090Z,8.70
2019-04-28T13:23:30.107Z,11.30
2019-04-28T13:26:07.576Z,9.63
2019-04-28T13:28:40.592Z,12.88
2019-04-28T13:31:10.363Z,9.05
2019-04-28T13:33:55.385Z,9.78
2019-04-28T13:36:14.984Z,10.88
2019-04-28T13:41:12.990Z,9.88
2019-04-28T13:43:42.973Z,6.22
2019-04-28T13:46:12.815Z,6.50
2019-04-28T13:48:43.607Z,8.93
2019-04-28T13:51:13.872Z,5.00
2019-04-28T13:53:44.054Z,9.55
2019-04-28T13:56:13.876Z,9.23
2019-04-28T13:58:51.653Z,7.78
2019-04-28T14:01:26.592Z,8.55
2019-04-28T14:04:13.508Z,7.62
2019-04-28T14:06:45.730Z,8.15
2019-04-28T14:09:16.801Z,7.17
2019-04-28T14:14:17.736Z,15.03
2019-04-28T14:16:47.574Z,4.05
2019-04-28T14:19:17.585Z,4.95
2019-04-28T14:21:47.321Z,5.15
2019-04-28T14:24:18.335Z,6.05
2019-04-28T14:26:49.609Z,6.33
2019-04-28T14:29:20.745Z,7.92
2019-04-28T14:31:50.998Z,7.22
2019-04-28T14:34:21.622Z,9.63
2019-04-28T14:36:51.916Z,7.62
2019-04-28T14:39:21.729Z,8.83
2019-04-28T14:41:51.579Z,12.10
2019-04-28T14:44:22.633Z,9.30
2019-04-28T14:46:52.260Z,11.60
2019-04-28T14:49:22.365Z,10.68
2019-04-28T14:51:53.414Z,10.50
2019-04-28T14:54:24.281Z,11.28
2019-04-28T14:56:55.880Z,14.18
2019-04-28T14:59:25.959Z,11.48
2019-04-28T15:02:12.255Z,12.13
2019-04-28T15:05:01.411Z,10.40
2019-04-28T15:07:41.981Z,10.45
2019-04-28T15:10:29.930Z,13.20
2019-04-28T15:13:00.864Z,10.38
2019-04-28T15:15:30.548Z,10.23
2019-04-28T15:18:01.670Z,8.70
2019-04-28T15:20:31.437Z,9.88
2019-04-28T15:23:01.159Z,11.68
2019-04-28T15:25:31.051Z,9.55
2019-04-28T15:28:00.802Z,9.60
2019-04-28T15:30:30.524Z,10.05
2019-04-28T15:33:00.260Z,7.33
2019-04-28T15:35:29.945Z,11.48
2019-04-28T15:37:59.765Z,14.83
2019-04-28T15:40:29.450Z,12.50
2019-04-28T15:42:59.164Z,9.55
2019-04-28T15:45:28.993Z,15.55
2019-04-28T15:47:58.776Z,11.25
2019-04-28T15:50:28.508Z,12.13
2019-04-28T15:52:58.424Z,11.05
2019-04-28T15:55:34.241Z,17.50
2019-04-28T15:58:08.493Z,14.87
2019-04-28T16:00:39.526Z,12.58
2019-04-28T16:03:09.208Z,16.37
2019-04-28T16:05:38.889Z,13.18
2019-04-28T16:08:08.633Z,13.18
2019-04-28T16:10:38.330Z,12.23
2019-04-28T16:13:08.027Z,14.65
2019-04-28T16:15:37.763Z,11.80
2019-04-28T16:18:07.577Z,15.63
2019-04-28T16:20:37.290Z,15.90
2019-04-28T16:23:07.075Z,11.35
2019-04-28T16:25:37.982Z,11.53
2019-04-28T16:28:07.793Z,13.48
2019-04-28T16:30:37.484Z,12.65
2019-04-28T16:33:07.403Z,15.18
2019-04-28T16:35:37.222Z,11.40
2019-04-28T16:38:07.023Z,18.80
2019-04-28T16:40:39.125Z,14.03
2019-04-28T16:43:14.862Z,10.00
2019-04-28T16:45:44.729Z,9.68
2019-04-28T16:48:15.565Z,15.50
2019-04-28T16:50:45.576Z,12.37
2019-04-28T16:53:16.357Z,8.15
2019-04-28T16:55:47.729Z,12.78
2019-04-28T16:58:19.077Z,20.45
2019-04-28T17:00:52.960Z,10.58
2019-04-28T17:03:22.832Z,9.98
2019-04-28T17:05:52.555Z,13.53
2019-04-28T17:08:22.395Z,16.37
2019-04-28T17:10:52.329Z,11.25
2019-04-28T17:13:22.302Z,11.43
2019-04-28T17:15:52.187Z,17.00
2019-04-28T17:18:23.584Z,11.38
2019-04-28T17:23:23.959Z,14.00
2019-04-28T17:25:53.760Z,13.35
2019-04-28T17:28:23.518Z,13.10
2019-04-28T17:30:53.433Z,9.60
2019-04-28T17:33:23.212Z,11.68
2019-04-28T17:35:54.841Z,10.80
2019-04-28T17:38:27.172Z,11.35
2019-04-28T17:40:56.915Z,11.20
2019-04-28T17:43:28.039Z,13.80
2019-04-28T17:45:57.954Z,12.95
2019-04-28T17:48:36.254Z,16.50
2019-04-28T17:51:08.131Z,10.55
2019-04-28T17:53:37.975Z,14.00
2019-04-28T17:56:07.665Z,11.83
2019-04-28T17:58:37.459Z,15.40
2019-04-28T18:01:11.572Z,13.45
2019-04-28T18:03:43.328Z,17.70
2019-04-28T18:06:23.647Z,21.62
2019-04-28T18:11:24.679Z,15.45
2019-04-28T18:13:55.543Z,12.40
2019-04-28T18:16:43.605Z,15.43
2019-04-28T18:19:17.797Z,13.98
2019-04-28T18:21:47.683Z,18.92
2019-04-28T18:24:17.490Z,15.93
2019-04-28T18:26:47.336Z,16.32
2019-04-28T18:29:17.101Z,13.90
2019-04-28T18:32:03.844Z,11.25
2019-04-28T18:37:26.073Z,14.43
2019-04-28T18:40:16.394Z,17.48
2019-04-28T18:42:59.818Z,19.60
2019-04-28T18:45:29.500Z,17.02
2019-04-28T18:47:59.294Z,18.30
2019-04-28T18:50:30.269Z,16.70
2019-04-28T18:52:59.914Z,19.92
2019-04-28T18:55:29.661Z,16.95
2019-04-28T18:57:59.453Z,26.40
2019-04-28T19:00:30.840Z,18.62
2019-04-28T19:05:40.527Z,26.77
2019-04-28T19:08:20.785Z,26.02
2019-04-28T19:10:58.196Z,27.82
2019-04-28T19:13:32.727Z,22.15
2019-04-28T19:16:19.488Z,26.30
2019-04-28T19:18:50.857Z,22.67
2019-04-28T19:23:49.314Z,29.02
2019-04-28T19:26:19.048Z,23.65
2019-04-28T19:28:48.845Z,21.27
2019-04-28T19:31:18.822Z,20.75
2019-04-28T19:33:48.492Z,23.30
2019-04-28T19:36:19.336Z,27.50
2019-04-28T19:39:02.173Z,27.73
2019-04-28T19:43:49.356Z,23.30
2019-04-28T19:46:19.610Z,18.15
2019-04-28T19:48:51.167Z,18.98
2019-04-28T19:51:31.263Z,27.23
2019-04-28T19:56:28.897Z,24.15
2019-04-28T19:59:00.287Z,21.68
2019-04-28T20:04:00.448Z,24.57
2019-04-28T20:06:31.289Z,15.88
2019-04-28T20:09:00.941Z,23.75
2019-04-28T20:11:32.087Z,27.67
2019-04-28T20:14:01.822Z,20.17
2019-04-28T20:16:31.642Z,23.83
2019-04-28T20:19:01.479Z,21.75
2019-04-28T20:21:31.601Z,20.77
2019-04-28T20:24:01.484Z,20.27
2019-04-28T20:26:31.637Z,21.57
2019-04-28T20:29:01.323Z,19.35
2019-04-28T20:31:31.119Z,22.45
2019-04-28T20:34:01.000Z,21.27
2019-04-28T20:36:38.172Z,27.30
2019-04-28T20:39:09.638Z,20.90
2019-04-28T20:41:41.039Z,31.85
2019-04-28T20:44:10.613Z,27.67
2019-04-28T20:46:40.244Z,22.65
2019-04-28T20:49:09.896Z,23.92
2019-04-28T20:51:39.557Z,27.67
2019-04-28T20:54:10.914Z,26.77
2019-04-28T20:59:15.297Z,30.90
2019-04-28T21:01:45.021Z,23.07
2019-04-28T21:04:14.730Z,24.72
2019-04-28T21:06:44.723Z,30.40
2019-04-28T21:09:14.398Z,32.10
2019-04-28T21:11:44.095Z,28.98
2019-04-28T21:14:14.060Z,25.52
2019-04-28T21:16:43.827Z,27.48
2019-04-28T21:19:13.429Z,23.75
2019-04-28T21:21:43.191Z,27.75
2019-04-28T21:24:12.877Z,28.50
2019-04-28T21:26:42.700Z,25.02
2019-04-28T21:29:12.441Z,28.67
2019-04-28T21:31:42.074Z,23.83
2019-04-28T21:34:11.837Z,29.15
2019-04-28T21:36:41.605Z,29.20
2019-04-28T21:39:11.430Z,24.47
2019-04-28T21:41:41.362Z,22.58
2019-04-28T21:44:21.784Z,23.10
2019-04-28T21:46:55.910Z,19.42
2019-04-28T21:49:27.393Z,25.88
2019-04-28T21:51:58.057Z,19.17
2019-04-28T21:54:27.739Z,18.32
2019-04-28T21:56:57.478Z,25.82
2019-04-28T21:59:27.429Z,21.73
2019-04-28T22:01:57.300Z,25.92
2019-04-28T22:04:27.403Z,26.25
2019-04-28T22:06:57.040Z,23.42
2019-04-28T22:09:26.806Z,23.10
2019-04-28T22:11:56.515Z,20.90
2019-04-28T22:14:26.228Z,24.77
2019-04-28T22:16:56.089Z,23.50
2019-04-28T22:19:25.788Z,33.18
2019-04-28T22:21:56.629Z,32.38
2019-04-28T22:24:32.677Z,25.68
2019-04-28T22:27:04.036Z,23.65
2019-04-28T22:32:03.028Z,25.52
2019-04-28T22:34:32.760Z,21.17
2019-04-28T22:37:02.600Z,19.95
2019-04-28T22:39:32.357Z,20.72
2019-04-28T22:42:02.240Z,25.45
2019-04-28T22:44:31.982Z,24.80
2019-04-28T22:47:01.803Z,27.52
2019-04-28T22:49:31.563Z,24.67
2019-04-28T22:52:01.437Z,30.30
2019-04-28T22:54:51.464Z,22.07
2019-04-28T22:57:25.887Z,27.00
2019-04-28T22:59:57.293Z,25.27
2019-04-28T23:05:05.076Z,26.55
2019-04-28T23:07:37.389Z,22.40
2019-04-28T23:10:09.225Z,24.72
2019-04-28T23:12:39.105Z,24.50
2019-04-28T23:15:09.413Z,24.90
2019-04-28T23:17:39.323Z,19.85
2019-04-28T23:20:12.096Z,18.82
2019-04-28T23:22:49.659Z,25.48
2019-04-28T23:25:19.356Z,25.82
2019-04-28T23:27:49.104Z,24.23
2019-04-28T23:30:40.299Z,21.77
2019-04-28T23:33:10.055Z,22.48
2019-04-28T23:35:39.912Z,17.02
2019-04-28T23:38:11.280Z,22.93
2019-04-28T23:43:12.945Z,19.98
2019-04-28T23:45:42.728Z,18.80
2019-04-28T23:48:13.623Z,20.82
2019-04-28T23:50:45.089Z,17.40
2019-04-28T23:55:45.386Z,18.23
2019-04-28T23:58:15.267Z,22.98
